Time;durP1;ratioP1;P1;durP2;ratioP2;P2;SDS_P1;SDS_P2;PMS_P1;PMS_P2;Temp;Humidity;BMP_temperature;BMP_pressure;BME280_temperature;BME280_humidity;BME280_pressure;Samples;Min_cycle;Max_cycle;Signal;HPM_P1;HPM_P2
2022/03/15 00:00:36;;;;;;;5.33;3.33;;;7.10;99.90;;;;;;5053184;28;21212;-88
2022/03/15 00:03:03;;;;;;;5.07;3.70;;;6.90;99.90;;;;;;5058703;28;20695;-88
2022/03/15 00:05:30;;;;;;;7.80;2.93;;;7.10;99.90;;;;;;5059864;28;20625;-89
2022/03/15 00:07:58;;;;;;;6.67;3.70;;;7.10;99.90;;;;;;5058903;28;20985;-88
2022/03/15 00:10:26;;;;;;;7.07;2.50;;;6.60;99.90;;;;;;5052761;28;20684;-88
2022/03/15 00:12:56;;;;;;;5.40;3.23;;;7.20;99.90;;;;;;5046376;28;20622;-89
2022/03/15 00:15:24;;;;;;;2.83;2.53;;;6.60;99.90;;;;;;5043009;28;20634;-88
2022/03/15 00:17:54;;;;;;;5.33;2.43;;;6.70;99.90;;;;;;5046807;28;20625;-89
2022/03/15 00:20:23;;;;;;;3.83;2.80;;;6.60;99.90;;;;;;5038803;28;20642;-89
2022/03/15 00:22:51;;;;;;;3.13;2.63;;;7.10;99.90;;;;;;5044489;28;21322;-89
2022/03/15 00:25:19;;;;;;;4.50;3.40;;;6.70;99.90;;;;;;5050475;28;21171;-88
2022/03/15 00:27:49;;;;;;;3.70;2.50;;;6.70;99.90;;;;;;5052322;28;20630;-88
2022/03/15 00:30:16;;;;;;;4.70;2.53;;;7.20;99.90;;;;;;5050280;28;20678;-89
2022/03/15 00:32:43;;;;;;;5.40;3.00;;;6.90;99.90;;;;;;5053260;28;20658;-88
2022/03/15 00:35:18;;;;;;;5.07;2.73;;;7.20;99.90;;;;;;5049780;28;20630;-88
2022/03/15 00:37:45;;;;;;;3.37;2.33;;;7.10;99.90;;;;;;5047875;28;20641;-88
2022/03/15 00:40:13;;;;;;;5.53;2.40;;;6.80;99.90;;;;;;5051606;28;20666;-87
2022/03/15 00:42:41;;;;;;;3.37;2.50;;;7.00;99.90;;;;;;5056071;28;20927;-88
2022/03/15 00:45:11;;;;;;;3.00;2.70;;;7.00;99.90;;;;;;5057858;28;20985;-89
2022/03/15 00:47:38;;;;;;;4.70;2.73;;;6.50;99.90;;;;;;5069720;28;20622;-89
2022/03/15 00:50:05;;;;;;;4.30;2.53;;;6.70;99.90;;;;;;5051443;28;20670;-88
2022/03/15 00:52:32;;;;;;;2.87;2.47;;;7.10;99.90;;;;;;5049303;28;20637;-88
2022/03/15 00:55:00;;;;;;;4.17;2.80;;;6.60;99.90;;;;;;5057065;28;21072;-88
2022/03/15 00:57:27;;;;;;;5.57;2.80;;;6.60;99.90;;;;;;5056221;28;20626;-88
2022/03/15 00:59:55;;;;;;;3.67;3.07;;;6.60;99.90;;;;;;5056767;28;21044;-88
2022/03/15 01:02:23;;;;;;;3.63;2.67;;;7.00;99.90;;;;;;5051310;28;20630;-88
2022/03/15 01:04:50;;;;;;;2.67;2.47;;;6.60;99.90;;;;;;5052235;28;20606;-88
2022/03/15 01:07:16;;;;;;;5.60;2.67;;;6.60;99.90;;;;;;5057178;28;20622;-88
2022/03/15 01:09:44;;;;;;;3.43;3.13;;;6.50;99.90;;;;;;5053334;28;20688;-88
2022/03/15 01:12:11;;;;;;;5.47;2.87;;;6.90;99.90;;;;;;5047320;28;21159;-88
2022/03/15 01:14:38;;;;;;;5.00;2.67;;;6.70;99.90;;;;;;5052384;28;20626;-88
2022/03/15 01:17:05;;;;;;;4.50;2.60;;;6.50;99.90;;;;;;5049237;28;20635;-88
2022/03/15 01:19:36;;;;;;;4.93;2.93;;;6.40;99.90;;;;;;5050609;28;20792;-88
2022/03/15 01:22:03;;;;;;;3.30;2.80;;;6.80;99.90;;;;;;5061049;28;20639;-88
2022/03/15 01:24:30;;;;;;;4.83;2.90;;;6.80;99.90;;;;;;5050567;28;20817;-88
2022/03/15 01:26:57;;;;;;;3.43;2.40;;;6.90;99.90;;;;;;5052298;28;20633;-88
2022/03/15 01:29:26;;;;;;;7.03;3.63;;;6.80;99.90;;;;;;5046149;28;21001;-88
2022/03/15 01:31:54;;;;;;;4.80;3.10;;;6.80;99.90;;;;;;5049660;28;20670;-88
2022/03/15 01:34:24;;;;;;;3.77;3.47;;;6.80;99.90;;;;;;5048869;28;20675;-88
2022/03/15 01:36:52;;;;;;;5.40;3.43;;;6.80;99.90;;;;;;5044665;28;20605;-88
2022/03/15 01:39:19;;;;;;;6.10;3.67;;;6.30;99.90;;;;;;5054800;28;21186;-88
2022/03/15 01:41:46;;;;;;;5.83;3.37;;;6.30;99.90;;;;;;5050208;28;21163;-88
2022/03/15 01:44:26;;;;;;;5.87;4.17;;;6.50;99.90;;;;;;5037349;28;20634;-88
2022/03/15 01:46:54;;;;;;;5.50;3.63;;;6.40;99.90;;;;;;5052573;28;20652;-88
2022/03/15 01:49:21;;;;;;;5.20;3.87;;;6.50;99.90;;;;;;5048535;28;20665;-88
2022/03/15 01:51:49;;;;;;;6.20;4.00;;;6.50;99.90;;;;;;5052741;28;20664;-89
2022/03/15 01:54:20;;;;;;;6.00;3.50;;;6.80;99.90;;;;;;5055912;28;20723;-88
2022/03/15 01:56:47;;;;;;;7.33;3.63;;;6.40;99.90;;;;;;5057278;28;20629;-88
2022/03/15 01:59:15;;;;;;;5.80;3.57;;;6.60;99.90;;;;;;5061047;28;20640;-88
2022/03/15 02:01:43;;;;;;;3.43;3.13;;;6.40;99.90;;;;;;5055940;28;21174;-88
2022/03/15 02:04:11;;;;;;;4.50;3.30;;;6.80;99.90;;;;;;5055595;28;20617;-88
2022/03/15 02:06:38;;;;;;;5.40;3.30;;;6.40;99.90;;;;;;5060095;28;20673;-87
2022/03/15 02:09:09;;;;;;;7.50;3.60;;;6.60;99.90;;;;;;5048106;28;20619;-88
2022/03/15 02:11:38;;;;;;;4.67;3.77;;;6.70;99.90;;;;;;5055000;28;20748;-87
2022/03/15 02:14:05;;;;;;;6.10;3.93;;;6.50;99.90;;;;;;5051032;28;20803;-87
2022/03/15 02:16:34;;;;;;;5.00;3.23;;;6.70;99.90;;;;;;5048891;28;20626;-89
2022/03/15 02:19:02;;;;;;;5.07;3.23;;;6.60;99.90;;;;;;5054176;28;20680;-88
2022/03/15 02:21:31;;;;;;;5.50;3.30;;;6.40;99.90;;;;;;5050723;28;21055;-88
2022/03/15 02:23:57;;;;;;;4.40;3.37;;;6.70;99.90;;;;;;5056524;28;20621;-88
2022/03/15 02:26:24;;;;;;;5.60;3.60;;;6.30;99.90;;;;;;5062477;28;21191;-87
2022/03/15 02:28:51;;;;;;;6.80;4.30;;;6.40;99.90;;;;;;5052063;28;20648;-88
2022/03/15 02:31:20;;;;;;;6.63;4.90;;;6.80;99.90;;;;;;5049939;28;20665;-88
2022/03/15 02:33:47;;;;;;;11.27;5.27;;;6.20;99.90;;;;;;5051069;28;20629;-88
2022/03/15 02:36:15;;;;;;;9.80;5.50;;;6.60;99.90;;;;;;5059404;28;21158;-88
2022/03/15 02:38:43;;;;;;;5.80;4.53;;;6.80;99.90;;;;;;5052888;28;20684;-88
2022/03/15 02:41:10;;;;;;;7.00;5.03;;;6.60;99.90;;;;;;5058968;28;20644;-88
2022/03/15 02:43:38;;;;;;;9.60;6.00;;;6.60;99.90;;;;;;5045490;28;20622;-88
2022/03/15 02:46:05;;;;;;;7.60;4.87;;;6.90;99.90;;;;;;5047435;28;20707;-88
2022/03/15 02:48:32;;;;;;;8.50;6.10;;;6.60;99.90;;;;;;5050812;28;20645;-89
2022/03/15 02:51:01;;;;;;;7.20;5.80;;;7.00;99.90;;;;;;5053086;28;20680;-87
2022/03/15 02:53:28;;;;;;;9.00;5.27;;;6.50;99.90;;;;;;5050585;28;20733;-88
2022/03/15 02:55:56;;;;;;;6.73;4.80;;;6.80;99.90;;;;;;5053640;28;20727;-88
2022/03/15 02:58:23;;;;;;;5.67;4.33;;;6.80;99.90;;;;;;5048431;28;20629;-87
2022/03/15 03:00:50;;;;;;;6.63;5.37;;;6.20;99.90;;;;;;5049684;28;20660;-88
2022/03/15 03:03:18;;;;;;;10.03;4.67;;;6.70;99.90;;;;;;5048643;28;20632;-88
2022/03/15 03:05:44;;;;;;;6.47;4.80;;;6.80;99.90;;;;;;5053154;28;20695;-87
2022/03/15 03:08:12;;;;;;;5.40;4.60;;;6.70;99.90;;;;;;5049960;28;20625;-88
2022/03/15 03:10:39;;;;;;;7.00;5.67;;;6.80;99.90;;;;;;5056407;28;20729;-88
2022/03/15 03:13:08;;;;;;;8.13;5.00;;;6.60;99.90;;;;;;5064962;28;20648;-88
2022/03/15 03:15:35;;;;;;;6.60;5.30;;;6.20;99.90;;;;;;5071187;28;21057;-88
2022/03/15 03:18:01;;;;;;;6.87;5.27;;;6.30;99.90;;;;;;5046771;28;21147;-88
2022/03/15 03:20:29;;;;;;;8.70;5.00;;;6.40;99.90;;;;;;5052520;28;20653;-88
2022/03/15 03:22:58;;;;;;;7.47;5.50;;;6.20;99.90;;;;;;5055934;28;20625;-88
2022/03/15 03:25:30;;;;;;;7.90;6.20;;;6.60;99.90;;;;;;5058383;28;21132;-87
2022/03/15 03:27:57;;;;;;;6.40;5.73;;;6.50;99.90;;;;;;5056555;28;20629;-87
2022/03/15 03:30:27;;;;;;;7.00;5.17;;;6.50;99.90;;;;;;5057749;28;20670;-87
2022/03/15 03:32:54;;;;;;;6.53;5.43;;;6.00;99.90;;;;;;5054639;28;20650;-88
2022/03/15 03:35:21;;;;;;;6.03;4.30;;;6.00;99.90;;;;;;5055947;28;20655;-87
2022/03/15 03:37:48;;;;;;;6.00;4.53;;;6.40;99.90;;;;;;5048990;28;20666;-88
2022/03/15 03:40:15;;;;;;;6.10;4.70;;;6.30;99.90;;;;;;5057744;28;20646;-88
2022/03/15 03:42:44;;;;;;;6.50;4.07;;;6.00;99.90;;;;;;5062679;28;20792;-87
2022/03/15 03:45:12;;;;;;;6.33;5.00;;;6.00;99.90;;;;;;5068714;28;20697;-87
2022/03/15 03:47:40;;;;;;;8.43;5.10;;;6.40;99.90;;;;;;5061852;28;20655;-89
2022/03/15 03:50:11;;;;;;;7.60;5.30;;;6.10;99.90;;;;;;5052588;28;20654;-89
2022/03/15 03:52:42;;;;;;;8.93;5.27;;;6.40;99.90;;;;;;5050960;28;20621;-88
2022/03/15 03:55:09;;;;;;;5.87;4.70;;;6.00;99.90;;;;;;5065008;28;20629;-88
2022/03/15 03:57:37;;;;;;;6.40;5.20;;;6.50;99.90;;;;;;5072098;28;21189;-86
2022/03/15 04:00:05;;;;;;;8.23;4.83;;;6.40;99.90;;;;;;5052232;28;20648;-87
2022/03/15 04:02:34;;;;;;;8.07;5.37;;;6.50;99.90;;;;;;5071074;28;20655;-88
2022/03/15 04:05:04;;;;;;;6.33;4.27;;;6.50;99.90;;;;;;5064036;28;20621;-88
2022/03/15 04:07:39;;;;;;;6.90;5.27;;;6.70;99.90;;;;;;5063557;28;20760;-88
2022/03/15 04:10:09;;;;;;;9.13;5.97;;;6.60;99.90;;;;;;5056858;28;20650;-88
2022/03/15 04:12:39;;;;;;;10.63;4.87;;;6.50;99.90;;;;;;5062313;28;20670;-88
2022/03/15 04:15:07;;;;;;;11.40;6.17;;;6.20;99.90;;;;;;5058081;28;20649;-88
2022/03/15 04:17:35;;;;;;;12.03;6.50;;;6.40;99.90;;;;;;5057133;28;20694;-87
2022/03/15 04:20:05;;;;;;;8.00;6.57;;;5.90;99.90;;;;;;5065872;28;20634;-88
2022/03/15 04:22:33;;;;;;;10.80;7.33;;;6.50;99.90;;;;;;5061678;28;20970;-86
2022/03/15 04:25:02;;;;;;;12.10;8.30;;;6.00;99.90;;;;;;5063109;28;20641;-88
2022/03/15 04:27:29;;;;;;;14.03;7.47;;;6.30;99.90;;;;;;5066036;28;20635;-87
2022/03/15 04:29:57;;;;;;;9.77;6.43;;;5.90;99.90;;;;;;5059486;28;20646;-88
2022/03/15 04:32:24;;;;;;;7.77;7.00;;;5.80;99.90;;;;;;5056073;28;20745;-89
2022/03/15 04:34:52;;;;;;;10.63;6.87;;;5.80;99.90;;;;;;5056976;28;20633;-89
2022/03/15 04:37:21;;;;;;;10.63;6.93;;;6.00;99.90;;;;;;5061697;28;21004;-88
2022/03/15 04:39:48;;;;;;;10.83;7.57;;;5.90;99.90;;;;;;5061769;28;20662;-89
2022/03/15 04:42:14;;;;;;;9.37;7.37;;;5.90;99.90;;;;;;5056631;28;20629;-88
2022/03/15 04:44:42;;;;;;;7.70;6.97;;;5.90;99.90;;;;;;5058700;28;20702;-89
2022/03/15 04:47:10;;;;;;;11.87;6.97;;;5.80;99.90;;;;;;5054029;28;20624;-88
2022/03/15 04:49:37;;;;;;;9.47;7.13;;;5.90;99.90;;;;;;5062282;28;20652;-89
2022/03/15 04:52:04;;;;;;;10.13;6.90;;;5.90;99.90;;;;;;5059756;28;20778;-88
2022/03/15 04:54:32;;;;;;;10.50;8.37;;;6.00;99.90;;;;;;5051974;28;20645;-88
2022/03/15 04:57:00;;;;;;;13.03;7.30;;;6.10;99.90;;;;;;5053069;28;20626;-89
2022/03/15 04:59:28;;;;;;;9.43;7.27;;;5.70;99.90;;;;;;5057534;28;20622;-88
2022/03/15 05:01:55;;;;;;;8.20;7.10;;;5.90;99.90;;;;;;5051893;28;20621;-88
2022/03/15 05:04:22;;;;;;;13.47;7.03;;;6.00;99.90;;;;;;5059569;28;21439;-89
2022/03/15 05:06:50;;;;;;;9.73;7.60;;;6.00;99.90;;;;;;5068429;28;20632;-88
2022/03/15 05:09:18;;;;;;;11.00;7.00;;;5.70;99.90;;;;;;5065879;28;20703;-88
2022/03/15 05:11:46;;;;;;;7.87;7.07;;;5.70;99.90;;;;;;5057608;28;20693;-88
2022/03/15 05:14:13;;;;;;;9.80;7.60;;;5.60;99.90;;;;;;5067531;28;20725;-88
2022/03/15 05:16:41;;;;;;;7.80;7.00;;;5.40;99.90;;;;;;5057069;28;20636;-88
2022/03/15 05:19:08;;;;;;;10.63;7.37;;;5.90;99.90;;;;;;5046016;28;20664;-88
2022/03/15 05:21:35;;;;;;;8.57;7.37;;;5.50;99.90;;;;;;5059074;28;21204;-87
2022/03/15 05:24:10;;;;;;;10.40;6.90;;;5.80;99.90;;;;;;5055653;28;20614;-87
2022/03/15 05:26:37;;;;;;;9.07;7.63;;;5.30;99.90;;;;;;5057954;28;20586;-87
2022/03/15 05:29:05;;;;;;;10.20;7.13;;;5.90;99.90;;;;;;5058387;28;20629;-87
2022/03/15 05:31:32;;;;;;;14.60;7.60;;;5.90;99.90;;;;;;5060339;28;20672;-88
2022/03/15 05:33:59;;;;;;;10.13;6.93;;;5.50;99.90;;;;;;5057301;28;20635;-88
2022/03/15 05:36:26;;;;;;;8.20;7.10;;;5.50;99.90;;;;;;5068665;28;20736;-88
2022/03/15 05:38:54;;;;;;;8.90;7.17;;;5.60;99.90;;;;;;5055666;28;21170;-87
2022/03/15 05:41:21;;;;;;;12.97;7.87;;;5.50;99.90;;;;;;5072119;28;20679;-88
2022/03/15 05:43:48;;;;;;;9.23;6.90;;;5.50;99.90;;;;;;5059324;28;20630;-88
2022/03/15 05:46:16;;;;;;;8.47;7.50;;;5.40;99.90;;;;;;5053538;28;20641;-89
2022/03/15 05:48:43;;;;;;;10.17;7.37;;;5.90;99.90;;;;;;5051033;28;21163;-88
2022/03/15 05:51:11;;;;;;;7.87;7.07;;;5.80;99.90;;;;;;5058702;28;20689;-88
2022/03/15 05:53:38;;;;;;;10.70;7.80;;;5.40;99.90;;;;;;5050380;28;20629;-88
2022/03/15 05:56:06;;;;;;;9.10;7.23;;;5.30;99.90;;;;;;5050889;28;20629;-88
2022/03/15 05:58:33;;;;;;;12.80;7.80;;;5.70;99.90;;;;;;5045756;28;21161;-88
2022/03/15 06:01:00;;;;;;;10.97;7.90;;;5.70;99.90;;;;;;5054756;28;20662;-89
2022/03/15 06:03:28;;;;;;;10.20;7.40;;;5.60;99.90;;;;;;5053197;28;20637;-89
2022/03/15 06:05:55;;;;;;;7.40;6.40;;;5.90;99.90;;;;;;5054112;28;20636;-89
2022/03/15 06:08:22;;;;;;;7.60;6.73;;;6.00;99.90;;;;;;5042570;28;20682;-89
2022/03/15 06:10:49;;;;;;;8.47;6.97;;;5.70;99.90;;;;;;5052504;28;20733;-90
2022/03/15 06:13:16;;;;;;;10.23;7.50;;;5.40;99.90;;;;;;5050500;28;20748;-90
2022/03/15 06:15:43;;;;;;;21.27;14.20;;;6.00;99.90;;;;;;5054286;28;21172;-89
2022/03/15 06:18:10;;;;;;;8.30;7.60;;;6.00;99.90;;;;;;5041468;28;20625;-89
2022/03/15 06:20:39;;;;;;;9.33;8.43;;;5.30;99.90;;;;;;5033383;28;20618;-90
2022/03/15 06:23:06;;;;;;;12.40;8.30;;;5.90;99.90;;;;;;5049660;28;20687;-89
2022/03/15 06:25:34;;;;;;;8.90;8.00;;;5.50;99.90;;;;;;5047208;28;21000;-89
2022/03/15 06:28:02;;;;;;;15.90;8.70;;;5.30;99.90;;;;;;5061363;28;20636;-89
2022/03/15 06:30:31;;;;;;;13.97;9.80;;;5.20;99.90;;;;;;5056159;28;20668;-90
2022/03/15 06:32:59;;;;;;;15.53;14.03;;;5.50;99.90;;;;;;5054746;28;20678;-89
2022/03/15 06:35:29;;;;;;;10.13;8.97;;;5.60;99.90;;;;;;5048385;28;21216;-89
2022/03/15 06:38:00;;;;;;;11.43;8.20;;;5.60;99.90;;;;;;5056057;28;20672;-90
2022/03/15 06:40:29;;;;;;;12.53;8.43;;;5.70;99.90;;;;;;5051926;28;20702;-89
2022/03/15 06:43:06;;;;;;;11.10;8.83;;;5.70;99.90;;;;;;5060343;28;20731;-89
2022/03/15 06:45:34;;;;;;;15.23;8.23;;;5.50;99.90;;;;;;5052186;28;20695;-89
2022/03/15 06:48:00;;;;;;;11.70;8.60;;;5.80;99.90;;;;;;5056622;28;20644;-89
2022/03/15 06:50:28;;;;;;;15.63;9.00;;;5.70;99.90;;;;;;5036881;28;20657;-89
2022/03/15 06:52:57;;;;;;;10.97;9.17;;;6.00;99.90;;;;;;5050879;28;20712;-89
2022/03/15 06:55:28;;;;;;;10.17;8.20;;;6.00;99.90;;;;;;5056060;28;20634;-89
2022/03/15 06:57:58;;;;;;;12.13;8.10;;;6.20;99.90;;;;;;5051841;28;20783;-88
2022/03/15 07:00:26;;;;;;;11.37;8.90;;;6.20;99.90;;;;;;5073112;28;20618;-88
2022/03/15 07:02:58;;;;;;;14.30;8.93;;;6.20;99.90;;;;;;5067231;28;20646;-88
2022/03/15 07:05:26;;;;;;;13.37;8.50;;;6.20;99.90;;;;;;5066039;28;20629;-89
2022/03/15 07:07:58;;;;;;;9.30;7.83;;;6.30;99.90;;;;;;5061682;28;21077;-89
2022/03/15 07:10:27;;;;;;;9.20;8.30;;;6.30;99.90;;;;;;5053118;28;20628;-89
2022/03/15 07:12:54;;;;;;;11.13;7.83;;;6.40;99.90;;;;;;5061742;28;20679;-89
2022/03/15 07:15:21;;;;;;;15.27;8.43;;;6.40;99.90;;;;;;5059483;28;20635;-87
2022/03/15 07:17:52;;;;;;;14.07;9.03;;;6.30;99.90;;;;;;5055307;28;20617;-89
2022/03/15 07:20:19;;;;;;;13.07;8.67;;;6.60;99.90;;;;;;5048713;28;20633;-88
2022/03/15 07:22:49;;;;;;;14.90;8.50;;;6.10;99.90;;;;;;5055121;28;20672;-88
2022/03/15 07:25:16;;;;;;;12.57;7.87;;;6.00;99.90;;;;;;5049131;28;21001;-90
2022/03/15 07:27:45;;;;;;;14.90;7.87;;;6.20;99.90;;;;;;5042073;28;20622;-89
2022/03/15 07:30:14;;;;;;;13.43;7.80;;;6.10;99.90;;;;;;5053270;28;20625;-90
2022/03/15 07:32:48;;;;;;;10.80;7.33;;;6.60;99.90;;;;;;5057874;28;21195;-90
2022/03/15 07:35:16;;;;;;;11.93;7.30;;;6.50;99.90;;;;;;5054737;28;20641;-89
2022/03/15 07:37:51;;;;;;;8.97;7.73;;;6.10;99.90;;;;;;5063747;28;20618;-90
2022/03/15 07:40:18;;;;;;;13.50;6.80;;;6.20;99.90;;;;;;5050212;28;20620;-89
2022/03/15 07:42:56;;;;;;;11.13;7.60;;;6.60;99.90;;;;;;5050064;28;20692;-89
2022/03/15 07:45:24;;;;;;;11.03;7.43;;;6.60;99.90;;;;;;5061621;28;20711;-88
2022/03/15 07:48:02;;;;;;;10.23;6.40;;;6.20;99.90;;;;;;5062371;28;20609;-89
2022/03/15 07:50:46;;;;;;;9.30;6.63;;;6.70;99.90;;;;;;5059503;28;20634;-89
2022/03/15 07:53:13;;;;;;;9.87;7.17;;;6.90;99.90;;;;;;5064060;28;20707;-90
2022/03/15 07:55:40;;;;;;;9.60;7.00;;;6.60;99.90;;;;;;5065002;28;20602;-89
2022/03/15 07:58:27;;;;;;;10.00;7.20;;;6.90;99.90;;;;;;5062263;28;20755;-88
2022/03/15 08:00:56;;;;;;;7.93;7.13;;;7.20;99.90;;;;;;5056472;28;20606;-89
2022/03/15 08:03:42;;;;;;;10.10;8.27;;;7.00;99.90;;;;;;5069692;28;20678;-88
2022/03/15 08:06:09;;;;;;;7.43;6.70;;;7.40;99.90;;;;;;5066885;28;20648;-89
2022/03/15 08:08:36;;;;;;;7.80;6.00;;;7.70;99.90;;;;;;5059776;28;20614;-90
2022/03/15 08:11:06;;;;;;;8.47;6.30;;;7.70;99.90;;;;;;5069344;28;20645;-90
2022/03/15 08:13:35;;;;;;;9.10;6.70;;;7.50;99.90;;;;;;5066853;28;20696;-88
2022/03/15 08:16:04;;;;;;;7.83;6.50;;;7.50;99.90;;;;;;5058032;28;20635;-90
2022/03/15 08:18:31;;;;;;;6.90;5.97;;;7.90;99.90;;;;;;5060105;28;20697;-89
2022/03/15 08:20:59;;;;;;;9.93;5.30;;;8.30;99.90;;;;;;5054135;28;20645;-89
2022/03/15 08:23:27;;;;;;;8.73;5.53;;;8.30;99.90;;;;;;5050104;28;20680;-90
2022/03/15 08:25:55;;;;;;;8.93;5.30;;;8.40;99.90;;;;;;5065411;28;20692;-89
2022/03/15 08:28:24;;;;;;;7.27;5.87;;;8.20;99.90;;;;;;5069056;28;20629;-89
2022/03/15 08:30:53;;;;;;;7.57;6.00;;;8.90;99.90;;;;;;5063593;28;20646;-88
2022/03/15 08:33:22;;;;;;;9.10;5.17;;;8.70;99.90;;;;;;5054429;28;20818;-89
2022/03/15 08:35:49;;;;;;;7.70;6.00;;;8.50;99.90;;;;;;5057453;28;20617;-88
2022/03/15 08:38:16;;;;;;;10.50;6.53;;;8.80;99.90;;;;;;5072878;28;20633;-89
2022/03/15 08:40:43;;;;;;;9.87;7.07;;;8.80;99.90;;;;;;5072133;28;20630;-89
2022/03/15 08:43:12;;;;;;;7.87;7.07;;;9.00;99.90;;;;;;5059717;28;20633;-88
2022/03/15 08:45:39;;;;;;;7.20;5.30;;;9.00;99.90;;;;;;5059541;28;20698;-89
2022/03/15 08:48:08;;;;;;;7.40;5.50;;;8.40;99.90;;;;;;5063582;28;20966;-89
2022/03/15 08:50:35;;;;;;;8.83;4.83;;;8.70;99.90;;;;;;5031826;28;21412;-89
2022/03/15 08:53:04;;;;;;;8.67;5.80;;;9.50;99.90;;;;;;5048546;28;21220;-89
2022/03/15 08:55:31;;;;;;;8.23;5.63;;;9.60;99.90;;;;;;5055001;28;20656;-89
2022/03/15 08:58:00;;;;;;;7.47;5.63;;;9.90;99.90;;;;;;5057343;28;20628;-90
2022/03/15 09:00:30;;;;;;;14.60;5.40;;;9.90;99.90;;;;;;5050588;28;21180;-90
2022/03/15 09:02:59;;;;;;;6.93;4.50;;;9.70;99.90;;;;;;5037170;28;20649;-90
2022/03/15 09:05:28;;;;;;;10.07;4.90;;;9.70;99.90;;;;;;5057629;28;20640;-88
2022/03/15 09:07:55;;;;;;;7.30;5.10;;;9.80;99.90;;;;;;5052184;28;20636;-89
2022/03/15 09:10:25;;;;;;;7.73;5.30;;;9.40;99.90;;;;;;5057410;28;20637;-90
2022/03/15 09:12:53;;;;;;;10.40;5.10;;;9.70;99.90;;;;;;5050321;28;21517;-90
2022/03/15 09:15:26;;;;;;;6.10;5.00;;;9.70;99.90;;;;;;5052687;28;20689;-89
2022/03/15 09:17:53;;;;;;;10.57;4.70;;;9.70;99.90;;;;;;5054237;28;20637;-89
2022/03/15 09:20:20;;;;;;;6.30;5.03;;;9.80;99.90;;;;;;5050676;28;20633;-90
2022/03/15 09:22:48;;;;;;;6.17;5.00;;;9.70;99.90;;;;;;5062430;28;21217;-90
2022/03/15 09:25:17;;;;;;;8.57;6.10;;;10.10;99.90;;;;;;5050029;28;21076;-89
2022/03/15 09:27:46;;;;;;;11.20;5.70;;;9.80;99.90;;;;;;5056030;28;20646;-89
2022/03/15 09:30:14;;;;;;;5.63;5.13;;;9.80;99.90;;;;;;5052938;28;20621;-91
2022/03/15 09:32:41;;;;;;;9.17;5.20;;;9.90;99.90;;;;;;5049845;28;21033;-91
2022/03/15 09:35:09;;;;;;;7.47;5.13;;;9.70;99.90;;;;;;5060547;28;20625;-90
2022/03/15 09:37:36;;;;;;;5.27;4.77;;;9.80;99.90;;;;;;5057674;28;20670;-90
2022/03/15 09:40:09;;;;;;;7.60;5.00;;;9.10;99.90;;;;;;5056561;28;21386;-90
2022/03/15 09:42:39;;;;;;;5.00;4.50;;;9.50;99.90;;;;;;5056529;28;20660;-90
2022/03/15 09:45:13;;;;;;;6.37;5.27;;;9.40;99.90;;;;;;5054122;28;20634;-90
2022/03/15 09:47:44;;;;;;;5.47;4.57;;;9.30;99.90;;;;;;5052260;28;20660;-91
2022/03/15 09:50:11;;;;;;;7.77;5.57;;;9.70;99.90;;;;;;5063322;28;20673;-90
2022/03/15 09:52:39;;;;;;;5.63;5.03;;;9.80;99.90;;;;;;5061080;28;20681;-91
2022/03/15 09:55:09;;;;;;;6.50;5.13;;;10.10;99.90;;;;;;5054520;28;20659;-91
2022/03/15 09:57:44;;;;;;;9.80;4.77;;;10.00;99.90;;;;;;5057014;28;20619;-90
2022/03/15 10:00:18;;;;;;;4.90;4.10;;;9.30;99.90;;;;;;5056990;28;20636;-91
2022/03/15 10:02:47;;;;;;;5.80;4.87;;;9.70;99.90;;;;;;5068299;28;22505;-89
2022/03/15 10:05:14;;;;;;;6.80;4.80;;;10.00;99.90;;;;;;5061694;28;20792;-89
2022/03/15 10:07:42;;;;;;;7.73;5.03;;;10.00;99.90;;;;;;5053975;28;20615;-90
2022/03/15 10:10:15;;;;;;;7.20;4.03;;;10.00;99.90;;;;;;5055038;28;20622;-91
2022/03/15 10:12:42;;;;;;;6.83;4.50;;;9.60;99.90;;;;;;5055310;28;20992;-90
2022/03/15 10:15:14;;;;;;;7.57;4.90;;;9.60;99.90;;;;;;5054483;28;20629;-91
2022/03/15 10:17:43;;;;;;;8.50;5.00;;;9.40;99.90;;;;;;5053487;28;20667;-90
2022/03/15 10:20:13;;;;;;;6.43;5.20;;;9.30;99.90;;;;;;5052107;28;20622;-91
2022/03/15 10:22:51;;;;;;;5.40;4.90;;;9.90;99.90;;;;;;5055127;28;20700;-91
2022/03/15 10:25:24;;;;;;;10.03;5.10;;;9.80;99.90;;;;;;5046355;28;20639;-90
2022/03/15 10:27:52;;;;;;;4.80;4.23;;;9.70;99.90;;;;;;5058557;28;20656;-90
2022/03/15 10:30:20;;;;;;;5.80;4.10;;;10.10;99.90;;;;;;5067927;28;20632;-90
2022/03/15 10:32:48;;;;;;;6.90;4.97;;;10.40;99.90;;;;;;5061902;28;21164;-91
2022/03/15 10:35:24;;;;;;;4.57;4.07;;;10.40;99.90;;;;;;5066150;28;20614;-90
2022/03/15 10:37:52;;;;;;;7.00;4.00;;;10.60;99.90;;;;;;5068145;28;20647;-90
2022/03/15 10:40:32;;;;;;;4.67;4.00;;;10.50;99.90;;;;;;5065962;28;20637;-90
2022/03/15 10:43:04;;;;;;;6.00;5.20;;;10.60;99.90;;;;;;5061691;28;20654;-90
2022/03/15 10:45:34;;;;;;;7.80;4.67;;;10.60;99.90;;;;;;5069407;28;20602;-90
2022/03/15 10:48:05;;;;;;;4.90;4.00;;;10.40;99.90;;;;;;5070343;28;20866;-91
2022/03/15 10:50:36;;;;;;;4.03;3.70;;;10.50;99.90;;;;;;5066196;28;20618;-91
2022/03/15 10:53:08;;;;;;;5.10;4.67;;;10.60;99.90;;;;;;5064361;28;21154;-91
2022/03/15 10:55:53;;;;;;;6.50;5.10;;;10.50;99.90;;;;;;5056675;28;20634;-90
2022/03/15 10:58:25;;;;;;;8.30;5.87;;;10.60;99.90;;;;;;5056013;28;20643;-90
2022/03/15 11:00:55;;;;;;;6.30;5.67;;;10.60;99.90;;;;;;5056777;28;20645;-90
2022/03/15 11:03:29;;;;;;;10.67;6.20;;;10.70;99.90;;;;;;5059112;28;20635;-90
2022/03/15 11:06:04;;;;;;;9.27;5.37;;;10.70;99.90;;;;;;5062654;28;20724;-90
2022/03/15 11:08:33;;;;;;;5.33;4.43;;;10.50;99.90;;;;;;5065884;28;20649;-90
2022/03/15 11:11:06;;;;;;;5.27;4.53;;;9.90;99.90;;;;;;5067743;28;20740;-91
2022/03/15 11:13:33;;;;;;;9.13;5.60;;;9.80;99.90;;;;;;5056858;28;20722;-91
2022/03/15 11:16:04;;;;;;;8.20;5.30;;;9.80;99.90;;;;;;5060882;28;20641;-89
2022/03/15 11:18:34;;;;;;;4.87;4.40;;;9.70;99.90;;;;;;5063878;28;20959;-90
2022/03/15 11:21:06;;;;;;;6.83;4.60;;;9.70;99.90;;;;;;5061641;28;20648;-89
2022/03/15 11:23:34;;;;;;;6.37;4.77;;;9.80;99.90;;;;;;5056976;28;20621;-88
2022/03/15 11:26:05;;;;;;;11.13;10.03;;;9.60;99.90;;;;;;5059378;28;20628;-90
2022/03/15 11:28:36;;;;;;;7.13;6.43;;;9.60;99.90;;;;;;5056866;28;21067;-90
2022/03/15 11:31:03;;;;;;;9.40;6.33;;;9.80;99.90;;;;;;5051755;28;20658;-89
2022/03/15 11:33:31;;;;;;;8.13;6.43;;;9.60;99.90;;;;;;5051594;28;21396;-89
2022/03/15 11:36:06;;;;;;;7.73;6.93;;;9.40;99.90;;;;;;5048944;28;20633;-88
2022/03/15 11:38:35;;;;;;;10.73;8.17;;;9.40;99.90;;;;;;5052104;28;20732;-89
2022/03/15 11:41:06;;;;;;;8.03;7.30;;;9.30;99.90;;;;;;5052886;28;20655;-89
2022/03/15 11:43:42;;;;;;;9.47;8.47;;;8.60;99.90;;;;;;5060498;28;20625;-89
2022/03/15 11:46:32;;;;;;;9.43;8.43;;;9.00;99.90;;;;;;5052782;28;20659;-89
2022/03/15 11:49:17;;;;;;;14.60;8.30;;;9.20;99.90;;;;;;5041749;28;20629;-90
2022/03/15 11:51:56;;;;;;;12.20;8.60;;;8.90;99.90;;;;;;5057780;28;20664;-89
2022/03/15 11:54:30;;;;;;;9.30;8.03;;;9.00;99.90;;;;;;5045310;28;20673;-89
2022/03/15 11:57:03;;;;;;;9.37;8.37;;;8.90;99.90;;;;;;5055779;28;20983;-89
2022/03/15 11:59:46;;;;;;;12.97;10.07;;;8.90;99.90;;;;;;5045832;28;20707;-90
2022/03/15 12:02:14;;;;;;;13.50;9.90;;;9.10;99.90;;;;;;5045622;28;20661;-90
2022/03/15 12:04:44;;;;;;;14.30;10.40;;;9.30;99.90;;;;;;5028576;28;20981;-90
2022/03/15 12:07:11;;;;;;;10.37;8.90;;;9.60;99.90;;;;;;5043305;28;20632;-88
2022/03/15 12:09:47;;;;;;;12.83;8.17;;;9.40;99.90;;;;;;5042092;28;21346;-89
2022/03/15 12:12:16;;;;;;;11.10;9.80;;;9.10;99.90;;;;;;5047642;28;20657;-88
2022/03/15 12:14:52;;;;;;;10.40;9.37;;;9.20;99.90;;;;;;5047641;28;20824;-89
2022/03/15 12:17:20;;;;;;;16.97;10.77;;;9.20;99.90;;;;;;5046012;28;20686;-89
2022/03/15 12:19:50;;;;;;;11.10;9.23;;;9.30;99.90;;;;;;5032114;28;20646;-89
2022/03/15 12:22:25;;;;;;;14.73;12.07;;;9.20;99.90;;;;;;5046449;28;21238;-90
2022/03/15 12:25:04;;;;;;;18.53;9.80;;;9.20;99.90;;;;;;5049118;28;20649;-89
2022/03/15 12:27:40;;;;;;;11.23;9.60;;;9.10;99.90;;;;;;5045051;28;20648;-89
2022/03/15 12:30:09;;;;;;;13.10;8.87;;;9.20;99.90;;;;;;5050953;28;20649;-89
2022/03/15 12:32:37;;;;;;;13.70;9.60;;;9.30;99.90;;;;;;5050666;28;20727;-89
2022/03/15 12:35:08;;;;;;;15.03;9.27;;;9.20;99.90;;;;;;5051247;28;20676;-89
2022/03/15 12:37:38;;;;;;;11.80;9.10;;;9.30;99.90;;;;;;5051634;28;21101;-89
2022/03/15 12:40:12;;;;;;;11.63;8.43;;;9.30;99.90;;;;;;5051090;28;20610;-88
2022/03/15 12:42:57;;;;;;;11.63;10.43;;;9.40;99.90;;;;;;5056545;28;21098;-89
2022/03/15 12:45:28;;;;;;;11.43;9.43;;;9.50;99.90;;;;;;5050602;28;20634;-89
2022/03/15 12:48:05;;;;;;;14.33;10.63;;;9.10;99.90;;;;;;5035071;28;20621;-88
2022/03/15 12:50:33;;;;;;;12.43;9.87;;;9.10;99.90;;;;;;5049847;28;20639;-88
2022/03/15 12:53:12;;;;;;;16.87;10.00;;;9.20;99.90;;;;;;5050803;28;21187;-88
2022/03/15 12:55:42;;;;;;;11.37;9.60;;;9.40;99.90;;;;;;5049936;28;20657;-88
2022/03/15 12:58:12;;;;;;;16.50;9.80;;;9.60;99.90;;;;;;5057591;28;20629;-88
2022/03/15 13:00:40;;;;;;;12.10;9.27;;;9.40;99.90;;;;;;5057451;28;20632;-89
2022/03/15 13:03:09;;;;;;;14.23;9.23;;;9.50;99.90;;;;;;5070459;28;20605;-87